Latest Weather Observations for Biloela

IDQ60801

Issued at 1:32 pm EST Wednesday 22 February 2017 (issued every 30 minutes, with the page automatically refreshed every 10 minutes)

About weather observations | Map of weather stations | Latest weather observations for QLD | Other Formats
Station Details ID: 039089 Name: THANGOOL AIRPORT Lat: -24.49 Lon: 150.57 Height: 193.1 m
Data from the previous 72 hours. | See also: Recent months at Biloela
Date/Time
EST
Temp
°C
App
Temp
°C
Dew
Point
°C
Rel
Hum
%
Delta-T
°C
Wind Press
QNH
hPa
Press
MSL
hPa
Rain since
9am
mm
Dir  Spd
km/h
Gust
km/h
Spd
kts
Gust
kts
22/01:30pm 33.2 31.3 11.7 27 12.8 E 13 19 7 10 1014.5 - 0.0
22/01:00pm 33.5 30.0 10.2 24 13.5 ESE 19 33 10 18 1014.9 - 0.0
22/12:30pm 32.9 29.4 10.3 25 13.1 ESE 19 26 10 14 1015.3 - 0.0
22/12:00pm 33.6 30.5 10.2 24 13.6 E 17 30 9 16 1015.7 1014.5 0.0
22/11:30am 31.3 28.7 10.6 28 12.0 SE 15 26 8 14 1016.3 - 0.0
22/11:00am 32.3 28.8 10.9 27 12.5 E 20 24 11 13 1016.7 - 0.0
22/10:30am 31.2 28.6 12.1 31 11.3 SE 17 24 9 13 1017.0 - 0.0
22/10:00am 30.6 27.3 11.5 30 11.2 ESE 20 28 11 15 1017.2 - 0.0
22/09:30am 29.5 27.1 13.7 38 9.5 E 19 28 10 15 1017.6 - 0.0
22/09:00am 28.8 27.2 16.4 47 7.8 E 20 32 11 17 1017.9 1016.7 0.0
22/08:30am 27.4 26.8 17.6 55 6.2 E 17 24 9 13 1018.3 - 0.0
22/08:00am 25.9 24.9 17.5 59 5.3 ESE 19 30 10 16 1018.2 - 0.0
22/07:30am 25.5 25.8 17.9 63 4.8 ESE 13 19 7 10 1018.2 - 0.0
22/07:00am 24.3 24.6 18.0 68 4.0 SE 13 20 7 11 1018.0 - 0.0
22/06:30am 22.9 25.3 18.0 74 3.1 SE 2 6 1 3 1018.0 - 0.0
22/06:00am 22.5 24.0 17.6 74 3.1 SSE 6 9 3 5 1017.5 1016.4 0.0
22/05:30am 23.2 24.3 18.1 73 3.2 SE 9 13 5 7 1017.1 - 0.0
22/05:00am 23.4 24.6 18.3 73 3.2 ESE 9 11 5 6 1016.8 - 0.0
22/04:30am 23.5 24.9 17.9 71 3.5 SE 7 11 4 6 1016.5 - 0.0
22/04:00am 23.9 24.7 18.1 70 3.7 SE 11 15 6 8 1016.2 - 0.0
22/03:30am 24.3 25.5 18.2 68 3.9 SE 9 17 5 9 1016.0 - 0.0
22/03:00am 24.3 25.6 18.5 70 3.7 SE 9 15 5 8 1015.6 1014.4 0.0
22/02:30am 24.3 25.4 18.0 68 4.0 SE 9 15 5 8 1015.7 - 0.0
22/02:00am 24.7 25.4 17.9 66 4.3 ESE 11 19 6 10 1015.8 - 0.0
22/01:30am 25.0 25.3 18.0 65 4.4 ESE 13 19 7 10 1015.7 - 0.0
22/01:00am 25.0 26.0 17.7 64 4.6 SE 9 13 5 7 1015.9 - 0.0
22/12:30am 25.2 25.8 17.7 63 4.7 ESE 11 15 6 8 1016.0 - 0.0
22/12:00am 25.1 25.7 17.6 63 4.7 ESE 11 17 6 9 1016.1 1014.9 0.0
 
Date/Time
EST
Temp
°C
App
Temp
°C
Dew
Point
°C
Rel
Hum
%
Delta-T
°C
Wind Press
QNH
hPa
Press
MSL
hPa
Rain since
9am
mm
Dir  Spd
km/h
Gust
km/h
Spd
kts
Gust
kts
21/11:30pm 25.2 25.8 17.7 63 4.7 ESE 11 15 6 8 1016.1 - 0.0
21/11:00pm 25.4 25.7 17.8 62 4.8 ESE 13 17 7 9 1016.1 - 0.0
21/10:30pm 25.5 27.2 18.4 65 4.5 ENE 7 11 4 6 1016.1 - 0.0
21/10:00pm 26.2 27.7 18.8 63 4.8 NE 9 13 5 7 1016.1 - 0.0
21/09:30pm 26.9 27.8 19.3 63 4.9 ENE 13 19 7 10 1015.8 - 0.0
21/09:00pm 26.9 28.3 19.5 64 4.8 NE 11 13 6 7 1015.7 1014.5 0.0
21/08:30pm 27.6 28.6 19.4 61 5.3 NNE 13 19 7 10 1015.3 - 0.0
21/08:00pm 28.3 28.9 19.5 59 5.8 NE 15 20 8 11 1014.9 - 0.0
21/07:30pm 29.0 29.5 19.3 55 6.3 NNE 15 20 8 11 1014.5 - 0.0
21/07:00pm 29.8 29.3 19.2 53 6.9 NE 20 30 11 16 1014.0 - 0.0
21/06:30pm 30.3 28.6 19.0 50 7.4 NE 26 35 14 19 1013.5 - 0.0
21/06:00pm 31.2 29.8 18.9 48 8.1 NE 24 35 13 19 1012.8 1011.6 0.0
21/05:30pm 32.4 31.5 18.2 42 9.2 NE 20 28 11 15 1012.5 - 0.0
21/05:00pm 33.7 32.5 17.0 37 10.7 NNE 19 26 10 14 1012.0 - 0.0
21/04:30pm 36.0 36.4 16.2 31 12.7 SE 9 24 5 13 1011.9 - 0.0
21/04:00pm 36.2 34.5 9.7 20 15.5 E 9 15 5 8 1011.9 - 0.0
21/03:30pm 36.2 34.1 9.7 20 15.5 S 11 19 6 10 1011.9 - 0.0
21/03:00pm 36.1 33.8 10.3 21 15.2 SE 13 20 7 11 1012.1 1011.0 0.0
21/02:30pm 36.4 35.7 11.9 23 14.8 ENE 7 20 4 11 1012.5 - 0.0
21/02:00pm 35.0 34.1 12.6 26 13.6 SE 9 19 5 10 1012.7 - 0.0
21/01:30pm 35.2 34.4 12.8 26 13.6 W 9 20 5 11 1013.1 - 0.0
21/01:00pm 34.3 33.6 13.2 28 12.9 SSW 9 15 5 8 1013.6 - 0.0
21/12:30pm 33.4 32.4 13.5 30 12.1 WSW 11 22 6 12 1013.9 - 0.0
21/12:00pm 34.5 34.2 14.4 30 12.5 NE 9 17 5 9 1014.3 1013.1 0.0
21/11:30am 33.6 33.4 14.6 31 11.8 E 9 15 5 8 1014.6 - 0.0
21/11:00am 33.1 32.9 15.6 35 11.0 ESE 11 19 6 10 1015.0 - 0.0
21/10:30am 31.6 31.6 16.3 39 9.7 SE 11 17 6 9 1015.4 - 0.0
21/10:00am 30.9 31.7 17.2 43 8.7 E 9 20 5 11 1015.8 - 0.0
21/09:30am 30.5 30.7 17.6 46 8.3 E 13 20 7 11 1015.9 - 0.0
21/09:00am 29.1 29.9 19.1 54 6.5 ESE 13 20 7 11 1015.6 1014.4 0.0
21/08:30am 28.5 29.7 20.0 60 5.6 ESE 13 20 7 11 1015.7 - 0.0
21/08:00am 27.0 28.4 20.3 66 4.4 E 13 20 7 11 1015.6 - 0.0
21/07:30am 25.6 27.6 19.9 70 3.7 SE 9 17 5 9 1015.6 - 0.0
21/07:00am 23.4 25.1 18.1 72 3.3 E 6 7 3 4 1015.6 - 0.0
21/06:30am 21.1 23.5 16.9 77 2.6 CALM 0 9 0 5 1015.0 - 0.0
21/06:00am 18.9 20.5 14.8 77 2.4 CALM 0 0 0 0 1014.6 1013.4 0.0
21/05:30am 18.6 19.7 13.5 72 2.9 CALM 0 0 0 0 1014.4 - 0.0
21/05:00am 18.6 19.4 12.4 67 3.5 CALM 0 0 0 0 1014.3 - 0.0
21/04:30am 18.4 18.9 11.7 65 3.7 CALM 0 0 0 0 1013.9 - 0.0
21/04:00am 19.5 18.9 11.8 61 4.3 E 6 7 3 4 1013.5 - 0.0
21/03:30am 19.8 19.0 11.6 59 4.6 E 7 7 4 4 1013.1 - 0.0
21/03:00am 19.9 18.8 10.6 55 5.1 E 7 9 4 5 1013.0 1011.8 0.0
21/02:30am 20.4 19.5 10.5 53 5.4 E 6 9 3 5 1012.9 - 0.0
21/02:00am 20.6 19.6 10.4 52 5.6 S 6 9 3 5 1013.1 - 0.0
21/01:30am 21.0 21.5 11.6 55 5.3 CALM 0 0 0 0 1013.2 - 0.0
21/01:00am 21.4 22.3 12.8 58 4.9 CALM 0 0 0 0 1013.3 - 0.0
21/12:30am 23.0 22.7 12.6 52 6.0 SE 6 7 3 4 1013.4 - 0.0
21/12:00am 23.2 23.9 16.0 64 4.4 ESE 7 13 4 7 1013.5 1012.3 0.0
 
Date/Time
EST
Temp
°C
App
Temp
°C
Dew
Point
°C
Rel
Hum
%
Delta-T
°C
Wind Press
QNH
hPa
Press
MSL
hPa
Rain since
9am
mm
Dir  Spd
km/h
Gust
km/h
Spd
kts
Gust
kts
20/11:30pm 23.8 25.2 18.7 73 3.3 E 9 13 5 7 1013.7 - 0.0
20/11:00pm 25.2 23.6 8.7 35 9.0 S 7 11 4 6 1013.7 - 0.0
20/10:30pm 25.1 22.9 6.3 30 9.8 SSW 7 9 4 5 1013.7 - 0.0
20/10:00pm 27.2 25.4 9.5 33 9.9 W 9 15 5 8 1013.6 - 0.0
20/09:30pm 26.6 28.1 17.7 58 5.6 SW 6 9 3 5 1013.4 - 0.0
20/09:00pm 28.3 28.9 17.8 53 6.7 NNE 11 20 6 11 1013.1 1011.9 0.0
20/08:30pm 29.2 28.8 15.3 42 8.6 N 11 20 6 11 1012.6 - 0.0
20/08:00pm 28.4 26.7 7.6 27 11.3 SW 6 13 3 7 1011.9 - 0.0
20/07:30pm 28.8 27.3 8.5 28 11.2 WSW 6 11 3 6 1011.1 - 0.0
20/07:00pm 28.5 27.8 10.2 32 10.4 ESE 4 11 2 6 1010.7 - 0.0
20/06:30pm 30.9 29.2 9.7 27 12.1 E 9 13 5 7 1010.2 - 0.0
20/06:00pm 32.9 30.8 8.4 22 13.8 ENE 9 13 5 7 1009.7 1008.5 0.0
20/05:30pm 33.3 32.4 9.4 23 13.7 NNE 4 11 2 6 1009.4 - 0.0
20/05:00pm 33.6 32.2 9.6 23 13.8 NNE 7 11 4 6 1009.0 - 0.0
20/04:30pm 33.7 31.8 9.0 22 14.1 SE 9 19 5 10 1008.8 - 0.0
20/04:00pm 33.8 31.9 9.1 22 14.1 E 9 17 5 9 1008.8 - 0.0
20/03:30pm 34.3 32.3 10.2 23 14.0 SSW 11 20 6 11 1008.7 - 0.0
20/03:00pm 33.4 31.2 10.7 25 13.3 SSE 13 20 7 11 1008.9 1007.7 0.0
20/02:30pm 32.7 31.0 11.3 27 12.6 ENE 11 20 6 11 1009.3 - 0.0
20/02:00pm 32.7 30.6 12.3 28 12.2 ESE 15 28 8 15 1009.6 - 0.0
20/01:30pm 32.4 30.8 11.6 28 12.3 E 11 20 6 11 1010.0 - 0.0
20/01:00pm 32.0 30.4 12.8 31 11.5 S 13 24 7 13 1010.5 - 0.0
20/12:30pm 31.0 29.4 12.8 32 10.9 SE 13 22 7 12 1010.9 - 0.0
20/12:00pm 30.8 29.6 14.0 36 10.2 SSE 13 26 7 14 1011.3 1010.1 0.0
20/11:30am 29.9 29.2 14.4 38 9.5 SSE 11 22 6 12 1011.7 - 0.0
20/11:00am 29.3 28.4 15.8 44 8.4 SE 15 26 8 14 1012.1 - 0.0
20/10:30am 28.6 27.6 15.5 45 8.1 S 15 24 8 13 1012.3 - 0.0
20/10:00am 28.3 28.3 16.2 47 7.5 SE 11 19 6 10 1012.3 - 0.0
20/09:30am 27.1 26.9 15.8 50 7.0 S 11 19 6 10 1012.5 - 0.0
20/09:00am 25.9 27.6 18.6 64 4.7 SW 7 13 4 7 1012.5 1011.3 6.0
20/08:30am 24.8 26.3 18.0 66 4.3 S 7 11 4 6 1012.6 - 6.0
20/08:00am 24.0 25.5 17.7 68 4.0 S 6 11 3 6 1012.5 - 6.0
20/07:30am 23.3 26.2 19.0 77 2.8 SSE 2 6 1 3 1012.0 - 6.0
20/07:00am 22.6 25.8 18.8 79 2.4 CALM 0 6 0 3 1011.8 - 6.0
20/06:30am 22.0 25.3 19.2 84 1.8 CALM 0 0 0 0 1011.6 - 6.0
20/06:00am 21.8 25.1 19.0 84 1.8 CALM 0 0 0 0 1011.3 1010.1 6.0
20/05:30am 21.6 24.9 19.0 85 1.7 CALM 0 0 0 0 1010.9 - 6.0
20/05:00am 21.9 24.1 19.1 84 1.8 SW 6 7 3 4 1010.7 - 6.0
20/04:30am 22.1 24.5 19.6 86 1.6 SW 6 7 3 4 1010.2 - 6.0
20/04:00am 22.3 24.8 20.2 88 1.4 SW 7 11 4 6 1009.9 - 6.0
20/03:30am 22.2 25.4 19.7 86 1.6 SW 2 6 1 3 1009.6 - 6.0
20/03:00am 22.5 24.8 19.9 85 1.7 E 7 11 4 6 1009.2 1008.0 6.0
20/02:30am 22.5 25.0 19.9 85 1.7 E 6 9 3 5 1009.7 - 6.0
20/02:00am 22.9 26.7 20.2 85 1.8 CALM 0 0 0 0 1010.2 - 6.0
20/01:30am 23.0 26.0 20.9 88 1.4 E 6 7 3 4 1010.4 - 6.0
20/01:00am 22.9 25.8 20.6 87 1.5 ESE 6 7 3 4 1010.6 - 6.0
20/12:30am 22.6 25.5 19.8 84 1.8 S 4 9 2 5 1010.8 - 6.0
20/12:00am 22.7 26.1 20.2 86 1.6 SSW 2 7 1 4 1011.2 1010.0 6.0
 
Date/Time
EST
Temp
°C
App
Temp
°C
Dew
Point
°C
Rel
Hum
%
Delta-T
°C
Wind Press
QNH
hPa
Press
MSL
hPa
Rain since
9am
mm
Dir  Spd
km/h
Gust
km/h
Spd
kts
Gust
kts
19/11:30pm 22.7 25.2 20.2 86 1.6 S 7 13 4 7 1011.4 - 6.0
19/11:00pm 22.9 25.5 21.2 90 1.1 SW 9 15 5 8 1011.3 - 6.0
19/10:30pm 23.6 26.7 22.2 92 0.9 SW 9 13 5 7 1011.5 - 5.4
19/10:00pm 23.9 28.4 22.2 90 1.1 SSW 2 9 1 5 1010.9 - 5.0
19/09:30pm 23.9 27.5 22.0 89 1.3 SW 6 9 3 5 1010.9 - 5.0
19/09:00pm 24.1 28.3 21.8 87 1.5 SE 2 7 1 4 1010.5 1009.3 5.0
19/08:30pm 24.1 28.8 22.0 88 1.4 CALM 0 0 0 0 1009.8 - 5.0
19/08:00pm 23.8 27.2 21.7 88 1.4 S 6 9 3 5 1009.4 - 5.0
19/07:30pm 23.7 27.7 21.4 87 1.5 ESE 2 7 1 4 1009.0 - 5.0
19/07:00pm 23.9 26.3 21.6 87 1.5 WNW 11 13 6 7 1009.3 - 5.0
19/06:30pm 23.9 26.4 21.0 84 1.9 N 9 13 5 7 1008.7 - 4.8
19/06:00pm 23.7 26.5 20.8 84 1.9 N 7 11 4 6 1008.5 1007.3 4.6
19/05:53pm 23.5 25.8 20.6 84 1.9 N 9 15 5 8 1008.5 - 4.4
19/05:33pm 23.7 25.3 20.0 80 2.4 NE 11 13 6 7 1008.3 - 2.2
19/05:30pm 24.1 25.8 20.2 79 2.5 NE 11 13 6 7 1008.2 - 1.2
19/05:21pm 24.9 22.8 19.0 69 3.8 N 28 48 15 26 1008.2 - 0.0
19/05:16pm 26.8 22.5 18.6 60 5.3 N 39 48 21 26 1007.9 - 0.0
19/05:00pm 29.2 29.7 17.4 49 7.5 SW 11 17 6 9 1006.6 - 0.0
19/04:30pm 29.1 28.1 17.9 50 7.2 WSW 20 28 11 15 1006.3 - 0.0
19/04:00pm 31.1 28.9 17.0 42 9.0 WSW 24 35 13 19 1006.0 - 0.0
19/03:30pm 33.6 32.9 16.5 36 10.9 WNW 15 24 8 13 1005.9 - 0.0
19/03:00pm 33.6 32.6 16.5 36 10.9 W 17 24 9 13 1006.3 1005.1 0.0
19/02:30pm 34.0 33.8 16.8 35 11.0 NW 13 20 7 11 1006.5 - 0.0
19/02:00pm 33.7 32.5 16.1 34 11.2 NNW 17 24 9 13 1007.1 - 0.0

Other Formats:

Comma delimited format used in spreadsheet applications
http://www.bom.gov.au/fwo/IDQ60801/IDQ60801.94376.axf

JavaScript Object Notation format (JSON) in row-major order
http://www.bom.gov.au/fwo/IDQ60801/IDQ60801.94376.json